Time,TemperatureF,DewpointF,PressureIn,WindDirection,WindDirectionDegrees,WindSpeedMPH,WindSpeedGustMPH,Humidity,HourlyPrecipIn,Conditions,Clouds,dailyrainin,SoftwareType,DateUTC
2013-04-21 00:00:00,46.6,42.9,30.32,West,263,0.0,15.0,87,0.00,,,0.00,Wunderground v.1.15,2013-04-21 07:00:00,
2013-04-21 00:05:00,46.5,42.8,30.32,West,263,0.0,15.0,87,0.00,,,0.00,Wunderground v.1.15,2013-04-21 07:05:00,
2013-04-21 00:11:00,46.4,42.7,30.32,West,263,0.0,0.0,87,0.00,,,0.00,Wunderground v.1.15,2013-04-21 07:11:00,
2013-04-21 00:16:00,46.2,42.5,30.32,West,263,0.0,0.0,87,0.00,,,0.00,Wunderground v.1.15,2013-04-21 07:16:00,
2013-04-21 00:21:00,46.0,42.3,30.32,West,263,0.0,0.0,87,0.00,,,0.00,Wunderground v.1.15,2013-04-21 07:21:00,
2013-04-21 00:26:00,45.9,42.2,30.32,West,263,0.0,0.0,87,0.00,,,0.00,Wunderground v.1.15,2013-04-21 07:26:00,
2013-04-21 00:32:00,45.7,42.3,30.32,West,263,0.0,0.0,88,0.00,,,0.00,Wunderground v.1.15,2013-04-21 07:32:00,
2013-04-21 00:37:00,45.6,42.3,30.32,West,263,0.0,1.0,88,0.00,,,0.00,Wunderground v.1.15,2013-04-21 07:37:00,
2013-04-21 00:42:00,45.6,42.3,30.32,West,263,0.0,0.0,88,0.00,,,0.00,Wunderground v.1.15,2013-04-21 07:42:00,
2013-04-21 00:48:00,45.4,42.1,30.32,West,263,0.0,0.0,88,0.00,,,0.00,Wunderground v.1.15,2013-04-21 07:48:00,
2013-04-21 00:53:00,45.3,42.0,30.32,West,263,0.0,0.0,88,0.00,,,0.00,Wunderground v.1.15,2013-04-21 07:53:00,
2013-04-21 00:58:00,45.2,42.2,30.32,West,263,0.0,0.0,89,0.00,,,0.00,Wunderground v.1.15,2013-04-21 07:58:00,
2013-04-21 01:04:00,45.2,42.2,30.33,West,263,0.0,5.0,89,0.00,,,0.00,Wunderground v.1.15,2013-04-21 08:04:00,
2013-04-21 01:09:00,45.2,42.2,30.32,West,263,0.0,5.0,89,0.00,,,0.00,Wunderground v.1.15,2013-04-21 08:09:00,
2013-04-21 01:14:00,45.2,42.4,30.32,West,263,0.0,5.0,90,0.00,,,0.00,Wunderground v.1.15,2013-04-21 08:14:00,
2013-04-21 01:20:00,45.2,42.4,30.32,West,263,0.0,5.0,90,0.00,,,0.00,Wunderground v.1.15,2013-04-21 08:20:00,
2013-04-21 01:25:00,45.1,42.3,30.32,West,263,0.0,5.0,90,0.00,,,0.00,Wunderground v.1.15,2013-04-21 08:25:00,
2013-04-21 01:30:00,45.1,42.3,30.32,West,263,0.0,5.0,90,0.00,,,0.00,Wunderground v.1.15,2013-04-21 08:30:00,
2013-04-21 01:36:00,45.1,42.3,30.32,West,263,0.0,5.0,90,0.00,,,0.00,Wunderground v.1.15,2013-04-21 08:36:00,
2013-04-21 01:41:00,45.2,42.7,30.31,West,263,0.0,5.0,91,0.00,,,0.00,Wunderground v.1.15,2013-04-21 08:41:00,
2013-04-21 01:46:00,45.3,42.8,30.31,West,263,0.0,5.0,91,0.00,,,0.00,Wunderground v.1.15,2013-04-21 08:46:00,
2013-04-21 01:52:00,45.4,42.9,30.31,West,263,0.0,5.0,91,0.00,,,0.00,Wunderground v.1.15,2013-04-21 08:52:00,
2013-04-21 01:57:00,45.1,42.3,30.31,West,263,0.0,5.0,90,0.00,,,0.00,Wunderground v.1.15,2013-04-21 08:57:00,
2013-04-21 02:03:00,44.9,42.1,30.31,West,263,0.0,5.0,90,0.00,,,0.00,Wunderground v.1.15,2013-04-21 09:03:00,
2013-04-21 02:08:00,44.7,41.9,30.31,West,263,0.0,5.0,90,0.00,,,0.00,Wunderground v.1.15,2013-04-21 09:08:00,
2013-04-21 02:13:00,44.6,42.1,30.31,West,263,0.0,5.0,91,0.00,,,0.00,Wunderground v.1.15,2013-04-21 09:13:00,
2013-04-21 02:18:00,44.5,42.0,30.31,West,263,0.0,5.0,91,0.00,,,0.00,Wunderground v.1.15,2013-04-21 09:18:00,
2013-04-21 02:24:00,44.5,42.0,30.30,West,263,0.0,5.0,91,0.00,,,0.00,Wunderground v.1.15,2013-04-21 09:24:00,
2013-04-21 02:29:00,44.5,42.0,30.30,West,263,0.0,5.0,91,0.00,,,0.00,Wunderground v.1.15,2013-04-21 09:29:00,
2013-04-21 02:35:00,44.5,42.0,30.31,West,263,0.0,5.0,91,0.00,,,0.00,Wunderground v.1.15,2013-04-21 09:35:00,
2013-04-21 02:40:00,44.6,42.1,30.31,West,263,0.0,5.0,91,0.00,,,0.00,Wunderground v.1.15,2013-04-21 09:40:00,
2013-04-21 02:45:00,44.7,42.2,30.31,West,263,0.0,5.0,91,0.00,,,0.00,Wunderground v.1.15,2013-04-21 09:45:00,
2013-04-21 02:50:00,44.7,42.2,30.30,West,263,0.0,5.0,91,0.00,,,0.00,Wunderground v.1.15,2013-04-21 09:50:00,
2013-04-21 02:56:00,44.8,42.3,30.30,West,263,0.0,5.0,91,0.00,,,0.00,Wunderground v.1.15,2013-04-21 09:56:00,
2013-04-21 03:01:00,44.9,42.4,30.30,West,263,0.0,5.0,91,0.00,,,0.00,Wunderground v.1.15,2013-04-21 10:01:00,
2013-04-21 03:06:00,45.0,42.5,30.30,West,263,0.0,5.0,91,0.00,,,0.00,Wunderground v.1.15,2013-04-21 10:06:00,
2013-04-21 03:12:00,45.0,42.8,30.30,West,263,0.0,5.0,92,0.00,,,0.00,Wunderground v.1.15,2013-04-21 10:12:00,
2013-04-21 03:17:00,45.0,42.8,30.29,West,263,0.0,5.0,92,0.00,,,0.00,Wunderground v.1.15,2013-04-21 10:17:00,
2013-04-21 03:23:00,45.0,42.5,30.29,West,263,0.0,5.0,91,0.00,,,0.00,Wunderground v.1.15,2013-04-21 10:23:00,
2013-04-21 03:28:00,45.0,42.8,30.29,West,263,0.0,5.0,92,0.00,,,0.00,Wunderground v.1.15,2013-04-21 10:28:00,
2013-04-21 03:33:00,45.0,42.8,30.29,West,263,0.0,5.0,92,0.00,,,0.00,Wunderground v.1.15,2013-04-21 10:33:00,
2013-04-21 03:38:00,45.0,42.8,30.28,West,263,0.0,5.0,92,0.00,,,0.00,Wunderground v.1.15,2013-04-21 10:38:00,
2013-04-21 03:44:00,45.0,42.8,30.28,West,263,0.0,5.0,92,0.00,,,0.00,Wunderground v.1.15,2013-04-21 10:44:00,
2013-04-21 03:49:00,45.0,42.8,30.28,West,263,0.0,5.0,92,0.00,,,0.00,Wunderground v.1.15,2013-04-21 10:49:00,
2013-04-21 03:54:00,45.0,42.8,30.29,West,263,0.0,5.0,92,0.00,,,0.00,Wunderground v.1.15,2013-04-21 10:54:00,
2013-04-21 04:00:00,45.0,42.8,30.29,West,263,0.0,5.0,92,0.00,,,0.00,Wunderground v.1.15,2013-04-21 11:00:00,
2013-04-21 04:05:00,45.2,43.0,30.28,West,263,0.0,5.0,92,0.00,,,0.00,Wunderground v.1.15,2013-04-21 11:05:00,
2013-04-21 04:11:00,45.3,43.1,30.29,West,263,1.0,5.0,92,0.00,,,0.00,Wunderground v.1.15,2013-04-21 11:11:00,
2013-04-21 04:16:00,45.4,43.2,30.29,West,263,0.0,5.0,92,0.00,,,0.00,Wunderground v.1.15,2013-04-21 11:16:00,
2013-04-21 04:21:00,45.5,43.3,30.29,West,263,0.0,5.0,92,0.00,,,0.00,Wunderground v.1.15,2013-04-21 11:21:00,
2013-04-21 04:26:00,45.5,43.3,30.29,West,263,0.0,5.0,92,0.00,,,0.00,Wunderground v.1.15,2013-04-21 11:26:00,
2013-04-21 04:32:00,45.5,43.3,30.29,West,263,0.0,5.0,92,0.00,,,0.00,Wunderground v.1.15,2013-04-21 11:32:00,
2013-04-21 04:37:00,45.6,43.4,30.28,West,263,0.0,5.0,92,0.00,,,0.00,Wunderground v.1.15,2013-04-21 11:37:00,
2013-04-21 04:42:00,45.6,43.4,30.29,West,263,0.0,5.0,92,0.00,,,0.00,Wunderground v.1.15,2013-04-21 11:42:00,
2013-04-21 04:48:00,45.6,43.4,30.29,West,263,0.0,5.0,92,0.00,,,0.00,Wunderground v.1.15,2013-04-21 11:48:00,
2013-04-21 04:53:00,45.6,43.4,30.29,West,263,0.0,5.0,92,0.00,,,0.00,Wunderground v.1.15,2013-04-21 11:53:00,
2013-04-21 04:58:00,45.6,43.4,30.29,West,263,0.0,5.0,92,0.00,,,0.00,Wunderground v.1.15,2013-04-21 11:58:00,
2013-04-21 05:04:00,45.6,43.4,30.29,West,263,0.0,5.0,92,0.00,,,0.00,Wunderground v.1.15,2013-04-21 12:04:00,
2013-04-21 05:09:00,45.6,43.4,30.29,West,263,0.0,5.0,92,0.00,,,0.00,Wunderground v.1.15,2013-04-21 12:09:00,
2013-04-21 05:14:00,45.6,43.4,30.29,West,263,0.0,5.0,92,0.00,,,0.00,Wunderground v.1.15,2013-04-21 12:14:00,
2013-04-21 05:20:00,45.6,43.4,30.29,West,263,0.0,5.0,92,0.00,,,0.00,Wunderground v.1.15,2013-04-21 12:20:00,
2013-04-21 05:25:00,45.5,43.3,30.29,West,263,0.0,5.0,92,0.00,,,0.00,Wunderground v.1.15,2013-04-21 12:25:00,
2013-04-21 05:30:00,45.4,43.2,30.30,West,263,0.0,5.0,92,0.00,,,0.00,Wunderground v.1.15,2013-04-21 12:30:00,
2013-04-21 05:36:00,45.3,43.4,30.30,West,263,0.0,5.0,93,0.00,,,0.00,Wunderground v.1.15,2013-04-21 12:36:00,
2013-04-21 05:41:00,45.4,43.5,30.30,West,263,0.0,5.0,93,0.00,,,0.00,Wunderground v.1.15,2013-04-21 12:41:00,
2013-04-21 05:46:00,45.3,43.4,30.29,West,263,0.0,5.0,93,0.00,,,0.00,Wunderground v.1.15,2013-04-21 12:46:00,
2013-04-21 05:52:00,45.3,43.4,30.29,West,263,0.0,5.0,93,0.00,,,0.00,Wunderground v.1.15,2013-04-21 12:52:00,
2013-04-21 05:57:00,45.3,43.4,30.29,SW,229,1.0,5.0,93,0.00,,,0.00,Wunderground v.1.15,2013-04-21 12:57:00,
2013-04-21 06:02:00,45.3,43.4,30.29,SW,229,1.0,5.0,93,0.00,,,0.00,Wunderground v.1.15,2013-04-21 13:02:00,
2013-04-21 06:08:00,45.4,43.5,30.29,SW,229,0.0,5.0,93,0.00,,,0.00,Wunderground v.1.15,2013-04-21 13:08:00,
2013-04-21 06:14:00,45.4,43.5,30.29,SW,229,0.0,0.0,93,0.00,,,0.00,Wunderground v.1.15,2013-04-21 13:14:00,
2013-04-21 06:19:00,45.4,43.5,30.29,SW,229,0.0,0.0,93,0.00,,,0.00,Wunderground v.1.15,2013-04-21 13:19:00,
2013-04-21 06:24:00,45.4,43.5,30.29,SW,229,0.0,0.0,93,0.00,,,0.00,Wunderground v.1.15,2013-04-21 13:24:00,
2013-04-21 06:30:00,45.3,43.4,30.29,SW,229,0.0,0.0,93,0.00,,,0.00,Wunderground v.1.15,2013-04-21 13:30:00,
2013-04-21 06:35:00,45.2,43.3,30.28,SW,229,0.0,0.0,93,0.00,,,0.00,Wunderground v.1.15,2013-04-21 13:35:00,
2013-04-21 06:40:00,45.1,43.2,30.29,SW,229,0.0,0.0,93,0.00,,,0.00,Wunderground v.1.15,2013-04-21 13:40:00,
2013-04-21 06:46:00,45.1,43.2,30.29,SW,229,0.0,0.0,93,0.00,,,0.00,Wunderground v.1.15,2013-04-21 13:46:00,
2013-04-21 06:51:00,45.1,43.2,30.29,SW,229,0.0,0.0,93,0.00,,,0.00,Wunderground v.1.15,2013-04-21 13:51:00,
2013-04-21 06:56:00,45.4,43.5,30.29,SW,229,0.0,0.0,93,0.00,,,0.00,Wunderground v.1.15,2013-04-21 13:56:00,
2013-04-21 07:02:00,45.5,43.6,30.29,SW,229,0.0,3.0,93,0.00,,,0.00,Wunderground v.1.15,2013-04-21 14:02:00,
2013-04-21 07:07:00,45.5,43.6,30.29,SW,229,0.0,3.0,93,0.00,,,0.00,Wunderground v.1.15,2013-04-21 14:07:00,
2013-04-21 07:12:00,45.6,43.7,30.29,SW,229,0.0,3.0,93,0.00,,,0.00,Wunderground v.1.15,2013-04-21 14:12:00,
2013-04-21 07:18:00,45.7,43.8,30.28,SW,229,0.0,3.0,93,0.00,,,0.00,Wunderground v.1.15,2013-04-21 14:18:00,
2013-04-21 07:23:00,45.8,43.9,30.29,SW,229,0.0,3.0,93,0.00,,,0.00,Wunderground v.1.15,2013-04-21 14:23:00,
2013-04-21 07:28:00,45.8,43.6,30.29,SW,229,0.0,3.0,92,0.00,,,0.00,Wunderground v.1.15,2013-04-21 14:28:00,
2013-04-21 07:34:00,45.9,43.7,30.29,SW,229,0.0,3.0,92,0.00,,,0.00,Wunderground v.1.15,2013-04-21 14:34:00,
2013-04-21 07:39:00,46.0,43.8,30.29,SW,215,0.0,3.0,92,0.00,,,0.00,Wunderground v.1.15,2013-04-21 14:39:00,
2013-04-21 07:44:00,46.0,43.8,30.29,South,186,1.0,3.0,92,0.00,,,0.00,Wunderground v.1.15,2013-04-21 14:44:00,
2013-04-21 07:50:00,46.1,43.9,30.29,SSW,201,2.0,2.0,92,0.00,,,0.00,Wunderground v.1.15,2013-04-21 14:50:00,
2013-04-21 07:55:00,46.2,44.0,30.29,SSW,201,2.0,4.0,92,0.00,,,0.00,Wunderground v.1.15,2013-04-21 14:55:00,
2013-04-21 08:00:00,46.3,44.1,30.29,SSW,201,2.0,2.0,92,0.00,,,0.00,Wunderground v.1.15,2013-04-21 15:00:00,
2013-04-21 08:06:00,46.3,44.1,30.29,SSW,200,1.0,3.0,92,0.00,,,0.00,Wunderground v.1.15,2013-04-21 15:06:00,
2013-04-21 08:11:00,46.4,43.9,30.29,SSW,200,1.0,3.0,91,0.00,,,0.00,Wunderground v.1.15,2013-04-21 15:11:00,
2013-04-21 08:16:00,46.4,43.9,30.29,SSW,200,0.0,3.0,91,0.00,,,0.00,Wunderground v.1.15,2013-04-21 15:16:00,
2013-04-21 08:21:00,46.4,43.9,30.29,SSW,200,0.0,3.0,91,0.00,,,0.00,Wunderground v.1.15,2013-04-21 15:21:00,
2013-04-21 08:27:00,46.5,44.0,30.29,SSW,200,0.0,3.0,91,0.00,,,0.00,Wunderground v.1.15,2013-04-21 15:27:00,
2013-04-21 08:32:00,46.7,44.2,30.29,SSW,200,0.0,3.0,91,0.00,,,0.00,Wunderground v.1.15,2013-04-21 15:32:00,
2013-04-21 08:38:00,46.9,44.4,30.29,SSW,200,0.0,3.0,91,0.00,,,0.00,Wunderground v.1.15,2013-04-21 15:38:00,
2013-04-21 08:43:00,47.1,44.3,30.29,SSW,200,0.0,3.0,90,0.00,,,0.00,Wunderground v.1.15,2013-04-21 15:43:00,
2013-04-21 08:48:00,46.9,43.5,30.29,SSW,200,0.0,3.0,88,0.00,,,0.00,Wunderground v.1.15,2013-04-21 15:48:00,
2013-04-21 08:54:00,46.9,43.5,30.29,SSW,200,0.0,3.0,88,0.00,,,0.00,Wunderground v.1.15,2013-04-21 15:54:00,
2013-04-21 08:59:00,47.0,43.3,30.29,SSW,200,0.0,3.0,87,0.00,,,0.00,Wunderground v.1.15,2013-04-21 15:59:00,
2013-04-21 09:04:00,47.2,43.8,30.29,East,88,0.0,3.0,88,0.00,,,0.00,Wunderground v.1.15,2013-04-21 16:04:00,
2013-04-21 09:09:00,47.4,44.0,30.29,East,88,0.0,3.0,88,0.00,,,0.00,Wunderground v.1.15,2013-04-21 16:09:00,
2013-04-21 09:15:00,47.5,45.3,30.29,East,88,0.0,3.0,92,0.00,,,0.00,Wunderground v.1.15,2013-04-21 16:15:00,
2013-04-21 09:20:00,47.6,44.5,30.29,WNW,298,1.0,3.0,89,0.00,,,0.00,Wunderground v.1.15,2013-04-21 16:20:00,
2013-04-21 09:26:00,47.7,44.6,30.28,WNW,298,1.0,3.0,89,0.00,,,0.00,Wunderground v.1.15,2013-04-21 16:26:00,
2013-04-21 09:31:00,47.6,44.8,30.29,WNW,298,0.0,3.0,90,0.00,,,0.00,Wunderground v.1.15,2013-04-21 16:31:00,
2013-04-21 09:36:00,47.8,45.0,30.29,WNW,298,0.0,3.0,90,0.00,,,0.00,Wunderground v.1.15,2013-04-21 16:36:00,
2013-04-21 09:42:00,48.1,45.3,30.29,WNW,298,0.0,3.0,90,0.00,,,0.00,Wunderground v.1.15,2013-04-21 16:42:00,
2013-04-21 09:47:00,48.2,45.4,30.28,WNW,298,0.0,3.0,90,0.00,,,0.00,Wunderground v.1.15,2013-04-21 16:47:00,
2013-04-21 09:52:00,48.5,45.7,30.28,WNW,298,0.0,3.0,90,0.00,,,0.00,Wunderground v.1.15,2013-04-21 16:52:00,
2013-04-21 09:57:00,48.8,45.7,30.28,WNW,287,0.0,3.0,89,0.00,,,0.00,Wunderground v.1.15,2013-04-21 16:57:00,
2013-04-21 10:03:00,49.0,45.9,30.28,WNW,287,0.0,3.0,89,0.00,,,0.00,Wunderground v.1.15,2013-04-21 17:03:00,
2013-04-21 10:08:00,49.3,46.2,30.28,WNW,287,0.0,3.0,89,0.00,,,0.00,Wunderground v.1.15,2013-04-21 17:08:00,
2013-04-21 10:14:00,49.7,46.3,30.28,SSW,207,1.0,4.0,88,0.00,,,0.00,Wunderground v.1.15,2013-04-21 17:14:00,
2013-04-21 10:19:00,50.1,46.4,30.28,WNW,288,2.0,4.0,87,0.00,,,0.00,Wunderground v.1.15,2013-04-21 17:19:00,
2013-04-21 10:24:00,50.3,46.9,30.28,West,266,2.0,4.0,88,0.00,,,0.00,Wunderground v.1.15,2013-04-21 17:24:00,
2013-04-21 10:29:00,50.5,46.8,30.28,West,266,1.0,4.0,87,0.00,,,0.00,Wunderground v.1.15,2013-04-21 17:29:00,
2013-04-21 10:35:00,50.6,46.6,30.28,West,271,0.0,3.0,86,0.00,,,0.00,Wunderground v.1.15,2013-04-21 17:35:00,
2013-04-21 10:40:00,50.5,46.5,30.28,WNW,302,1.0,3.0,86,0.00,,,0.00,Wunderground v.1.15,2013-04-21 17:40:00,
2013-04-21 10:45:00,50.6,46.6,30.28,WNW,302,2.0,3.0,86,0.00,,,0.00,Wunderground v.1.15,2013-04-21 17:45:00,
2013-04-21 10:51:00,50.6,46.6,30.28,WNW,302,1.0,3.0,86,0.00,,,0.00,Wunderground v.1.15,2013-04-21 17:51:00,
2013-04-21 10:56:00,50.6,46.6,30.28,WNW,302,1.0,3.0,86,0.00,,,0.00,Wunderground v.1.15,2013-04-21 17:56:00,
2013-04-21 11:02:00,50.6,46.3,30.28,South,186,1.0,3.0,85,0.00,,,0.00,Wunderground v.1.15,2013-04-21 18:02:00,
2013-04-21 11:07:00,50.6,46.9,30.28,South,186,1.0,3.0,87,0.00,,,0.00,Wunderground v.1.15,2013-04-21 18:07:00,
2013-04-21 11:12:00,50.6,46.6,30.28,SSW,208,1.0,3.0,86,0.00,,,0.00,Wunderground v.1.15,2013-04-21 18:12:00,
2013-04-21 11:17:00,50.7,46.7,30.28,SSW,207,2.0,3.0,86,0.00,,,0.00,Wunderground v.1.15,2013-04-21 18:17:00,
2013-04-21 11:23:00,51.0,47.0,30.28,SSW,207,2.0,3.0,86,0.00,,,0.00,Wunderground v.1.15,2013-04-21 18:23:00,
2013-04-21 11:28:00,51.3,47.3,30.28,SSW,207,1.0,3.0,86,0.00,,,0.00,Wunderground v.1.15,2013-04-21 18:28:00,
2013-04-21 11:33:00,51.7,47.3,30.28,SSW,206,1.0,3.0,85,0.00,,,0.00,Wunderground v.1.15,2013-04-21 18:33:00,
2013-04-21 11:39:00,52.1,47.4,30.28,SSW,204,1.0,3.0,84,0.00,,,0.00,Wunderground v.1.15,2013-04-21 18:39:00,
2013-04-21 11:44:00,52.4,47.1,30.28,SSW,203,1.0,3.0,82,0.00,,,0.00,Wunderground v.1.15,2013-04-21 18:44:00,
2013-04-21 11:49:00,52.7,47.4,30.28,SSW,202,1.0,3.0,82,0.00,,,0.00,Wunderground v.1.15,2013-04-21 18:49:00,
2013-04-21 11:55:00,53.3,47.6,30.27,SSW,208,1.0,3.0,81,0.00,,,0.00,Wunderground v.1.15,2013-04-21 18:55:00,
2013-04-21 12:00:00,53.3,46.3,30.27,SSW,211,1.0,1.0,77,0.00,,,0.00,Wunderground v.1.15,2013-04-21 19:00:00,
2013-04-21 12:05:00,53.6,46.6,30.28,SSW,210,1.0,3.0,77,0.00,,,0.00,Wunderground v.1.15,2013-04-21 19:05:00,
2013-04-21 12:11:00,54.2,47.5,30.28,SSW,204,1.0,3.0,78,0.00,,,0.00,Wunderground v.1.15,2013-04-21 19:11:00,
2013-04-21 12:17:00,54.6,46.8,30.28,WSW,249,2.0,5.0,75,0.00,,,0.00,Wunderground v.1.15,2013-04-21 19:17:00,
2013-04-21 12:22:00,54.7,46.6,30.28,WSW,241,2.0,3.0,74,0.00,,,0.00,Wunderground v.1.15,2013-04-21 19:22:00,
2013-04-21 12:27:00,54.6,46.8,30.28,WNW,302,2.0,4.0,75,0.00,,,0.00,Wunderground v.1.15,2013-04-21 19:27:00,
2013-04-21 12:33:00,53.9,46.5,30.28,West,269,3.0,3.0,76,0.00,,,0.00,Wunderground v.1.15,2013-04-21 19:33:00,
2013-04-21 12:38:00,53.3,47.0,30.28,West,267,3.0,6.0,79,0.00,,,0.00,Wunderground v.1.15,2013-04-21 19:38:00,
2013-04-21 12:43:00,53.2,47.8,30.28,WNW,302,2.0,4.0,82,0.00,,,0.00,Wunderground v.1.15,2013-04-21 19:43:00,
2013-04-21 12:49:00,53.3,47.9,30.28,WSW,251,1.0,4.0,82,0.00,,,0.00,Wunderground v.1.15,2013-04-21 19:49:00,
2013-04-21 12:54:00,53.7,48.0,30.28,West,275,1.0,3.0,81,0.00,,,0.00,Wunderground v.1.15,2013-04-21 19:54:00,
2013-04-21 12:59:00,54.4,48.0,30.28,SSW,211,2.0,6.0,79,0.00,,,0.00,Wunderground v.1.15,2013-04-21 19:59:00,
2013-04-21 13:05:00,55.6,48.5,30.28,SW,217,3.0,4.0,77,0.00,,,0.00,Wunderground v.1.15,2013-04-21 20:05:00,
2013-04-21 13:10:00,56.2,47.7,30.27,SW,227,4.0,4.0,73,0.00,,,0.00,Wunderground v.1.15,2013-04-21 20:10:00,
2013-04-21 13:15:00,56.7,47.4,30.27,SSW,209,5.0,5.0,71,0.00,,,0.00,Wunderground v.1.15,2013-04-21 20:15:00,
2013-04-21 13:21:00,57.3,47.6,30.27,WSW,252,4.0,4.0,70,0.00,,,0.00,Wunderground v.1.15,2013-04-21 20:21:00,
2013-04-21 13:26:00,57.2,47.9,30.27,West,261,4.0,8.0,71,0.00,,,0.00,Wunderground v.1.15,2013-04-21 20:26:00,
2013-04-21 13:31:00,56.7,47.0,30.27,WSW,245,4.0,5.0,70,0.00,,,0.00,Wunderground v.1.15,2013-04-21 20:31:00,
2013-04-21 13:37:00,56.4,47.1,30.27,WNW,290,3.0,5.0,71,0.00,,,0.00,Wunderground v.1.15,2013-04-21 20:37:00,
2013-04-21 13:42:00,56.5,46.8,30.27,WNW,296,3.0,4.0,70,0.00,,,0.00,Wunderground v.1.15,2013-04-21 20:42:00,
2013-04-21 13:47:00,56.6,46.2,30.27,West,281,3.0,6.0,68,0.00,,,0.00,Wunderground v.1.15,2013-04-21 20:47:00,
2013-04-21 13:53:00,56.7,47.0,30.27,WNW,284,4.0,6.0,70,0.00,,,0.00,Wunderground v.1.15,2013-04-21 20:53:00,
2013-04-21 13:58:00,57.1,46.2,30.27,WSW,240,5.0,7.0,67,0.00,,,0.00,Wunderground v.1.15,2013-04-21 20:58:00,
2013-04-21 14:03:00,57.4,46.9,30.27,SSW,207,5.0,5.0,68,0.00,,,0.00,Wunderground v.1.15,2013-04-21 21:03:00,
2013-04-21 14:09:00,57.5,46.2,30.27,NW,326,5.0,7.0,66,0.00,,,0.00,Wunderground v.1.15,2013-04-21 21:09:00,
2013-04-21 14:14:00,57.6,46.7,30.27,SW,226,4.0,5.0,67,0.00,,,0.00,Wunderground v.1.15,2013-04-21 21:14:00,
2013-04-21 14:19:00,57.8,46.9,30.27,WNW,287,3.0,9.0,67,0.00,,,0.00,Wunderground v.1.15,2013-04-21 21:19:00,
2013-04-21 14:25:00,57.6,46.3,30.27,West,267,5.0,9.0,66,0.00,,,0.00,Wunderground v.1.15,2013-04-21 21:25:00,
2013-04-21 14:30:00,57.5,45.8,30.27,West,263,5.0,6.0,65,0.00,,,0.00,Wunderground v.1.15,2013-04-21 21:30:00,
2013-04-21 14:35:00,57.5,46.2,30.27,West,261,3.0,6.0,66,0.00,,,0.00,Wunderground v.1.15,2013-04-21 21:35:00,
2013-04-21 14:40:00,57.9,46.6,30.27,NW,317,4.0,6.0,66,0.00,,,0.00,Wunderground v.1.15,2013-04-21 21:40:00,
2013-04-21 14:46:00,58.5,47.2,30.28,West,267,4.0,6.0,66,0.00,,,0.00,Wunderground v.1.15,2013-04-21 21:46:00,
2013-04-21 14:51:00,59.0,46.8,30.27,SSW,203,4.0,4.0,64,0.00,,,0.00,Wunderground v.1.15,2013-04-21 21:51:00,
2013-04-21 14:57:00,58.9,45.5,30.27,NNW,332,4.0,11.0,61,0.00,,,0.00,Wunderground v.1.15,2013-04-21 21:57:00,
2013-04-21 15:02:00,58.4,45.4,30.27,NNW,336,5.0,6.0,62,0.00,,,0.00,Wunderground v.1.15,2013-04-21 22:02:00,
2013-04-21 15:07:00,58.3,45.8,30.27,WSW,253,5.0,6.0,63,0.00,,,0.00,Wunderground v.1.15,2013-04-21 22:07:00,
2013-04-21 15:13:00,58.0,45.5,30.27,West,277,4.0,5.0,63,0.00,,,0.00,Wunderground v.1.15,2013-04-21 22:13:00,
2013-04-21 15:18:00,57.9,44.5,30.27,SW,219,5.0,9.0,61,0.00,,,0.00,Wunderground v.1.15,2013-04-21 22:18:00,
2013-04-21 15:23:00,58.1,45.6,30.27,WSW,243,5.0,8.0,63,0.00,,,0.00,Wunderground v.1.15,2013-04-21 22:23:00,
2013-04-21 15:28:00,58.6,46.0,30.26,West,267,5.0,8.0,63,0.00,,,0.00,Wunderground v.1.15,2013-04-21 22:28:00,
2013-04-21 15:34:00,58.6,46.0,30.27,WNW,303,5.0,7.0,63,0.00,,,0.00,Wunderground v.1.15,2013-04-21 22:34:00,
2013-04-21 15:39:00,57.8,45.7,30.27,NW,316,5.0,7.0,64,0.00,,,0.00,Wunderground v.1.15,2013-04-21 22:39:00,
2013-04-21 15:45:00,57.1,45.8,30.27,SSW,211,4.0,5.0,66,0.00,,,0.00,Wunderground v.1.15,2013-04-21 22:45:00,
2013-04-21 15:50:00,56.8,45.2,30.26,NW,304,4.0,6.0,65,0.00,,,0.00,Wunderground v.1.15,2013-04-21 22:50:00,
2013-04-21 15:55:00,56.0,45.2,30.26,WSW,244,3.0,6.0,67,0.00,,,0.00,Wunderground v.1.15,2013-04-21 22:55:00,
2013-04-21 16:00:00,55.8,45.8,30.26,SW,225,3.0,4.0,69,0.00,,,0.00,Wunderground v.1.15,2013-04-21 23:00:00,
2013-04-21 16:06:00,56.3,45.9,30.26,West,268,4.0,9.0,68,0.00,,,0.00,Wunderground v.1.15,2013-04-21 23:06:00,
2013-04-21 16:11:00,56.9,46.1,30.26,WSW,253,4.0,6.0,67,0.00,,,0.00,Wunderground v.1.15,2013-04-21 23:11:00,
2013-04-21 16:16:00,57.6,45.5,30.26,WSW,242,5.0,11.0,64,0.00,,,0.00,Wunderground v.1.15,2013-04-21 23:16:00,
2013-04-21 16:22:00,58.0,45.5,30.26,West,281,6.0,6.0,63,0.00,,,0.00,Wunderground v.1.15,2013-04-21 23:22:00,
2013-04-21 16:27:00,58.1,45.6,30.26,SW,217,6.0,10.0,63,0.00,,,0.00,Wunderground v.1.15,2013-04-21 23:27:00,
2013-04-21 16:33:00,58.7,46.1,30.26,West,273,6.0,6.0,63,0.00,,,0.00,Wunderground v.1.15,2013-04-21 23:33:00,
2013-04-21 16:38:00,59.1,45.2,30.26,NW,305,5.0,10.0,60,0.00,,,0.00,Wunderground v.1.15,2013-04-21 23:38:00,
2013-04-21 16:43:00,59.6,45.7,30.26,West,266,4.0,5.0,60,0.00,,,0.00,Wunderground v.1.15,2013-04-21 23:43:00,
2013-04-21 16:49:00,59.0,45.6,30.26,WSW,250,5.0,9.0,61,0.00,,,0.00,Wunderground v.1.15,2013-04-21 23:49:00,
2013-04-21 16:54:00,58.4,45.0,30.26,WSW,240,4.0,6.0,61,0.00,,,0.00,Wunderground v.1.15,2013-04-21 23:54:00,
2013-04-21 16:59:00,57.9,45.4,30.26,West,273,4.0,6.0,63,0.00,,,0.00,Wunderground v.1.15,2013-04-21 23:59:00,
2013-04-21 17:05:00,57.6,44.7,30.26,SW,227,5.0,10.0,62,0.00,,,0.00,Wunderground v.1.15,2013-04-22 00:05:00,
2013-04-21 17:10:00,57.9,45.4,30.26,NW,307,4.0,10.0,63,0.00,,,0.00,Wunderground v.1.15,2013-04-22 00:10:00,
2013-04-21 17:15:00,57.7,44.3,30.26,SSW,213,4.0,10.0,61,0.00,,,0.00,Wunderground v.1.15,2013-04-22 00:15:00,
2013-04-21 17:20:00,57.3,44.8,30.26,West,269,4.0,4.0,63,0.00,,,0.00,Wunderground v.1.15,2013-04-22 00:20:00,
2013-04-21 17:26:00,56.7,44.7,30.26,NW,326,3.0,6.0,64,0.00,,,0.00,Wunderground v.1.15,2013-04-22 00:26:00,
2013-04-21 17:31:00,56.2,44.2,30.26,West,269,3.0,4.0,64,0.00,,,0.00,Wunderground v.1.15,2013-04-22 00:31:00,
2013-04-21 17:37:00,55.8,44.2,30.26,WSW,257,4.0,4.0,65,0.00,,,0.00,Wunderground v.1.15,2013-04-22 00:37:00,
2013-04-21 17:42:00,55.6,44.4,30.27,SSW,200,3.0,10.0,66,0.00,,,0.00,Wunderground v.1.15,2013-04-22 00:42:00,
2013-04-21 17:47:00,55.3,43.3,30.27,WNW,298,4.0,10.0,64,0.00,,,0.00,Wunderground v.1.15,2013-04-22 00:47:00,
2013-04-21 17:53:00,55.2,43.6,30.27,SW,229,4.0,9.0,65,0.00,,,0.00,Wunderground v.1.15,2013-04-22 00:53:00,
2013-04-21 17:58:00,55.0,43.4,30.27,West,267,3.0,9.0,65,0.00,,,0.00,Wunderground v.1.15,2013-04-22 00:58:00,
2013-04-21 18:03:00,54.8,43.7,30.27,West,269,3.0,9.0,66,0.00,,,0.00,Wunderground v.1.15,2013-04-22 01:03:00,
2013-04-21 18:09:00,54.5,43.4,30.27,NW,306,3.0,9.0,66,0.00,,,0.00,Wunderground v.1.15,2013-04-22 01:09:00,
2013-04-21 18:14:00,54.3,43.6,30.27,NW,312,4.0,10.0,67,0.00,,,0.00,Wunderground v.1.15,2013-04-22 01:14:00,
2013-04-21 18:20:00,54.2,43.9,30.27,WSW,258,3.0,3.0,68,0.00,,,0.00,Wunderground v.1.15,2013-04-22 01:20:00,
2013-04-21 18:25:00,54.1,43.8,30.27,SSW,211,3.0,5.0,68,0.00,,,0.00,Wunderground v.1.15,2013-04-22 01:25:00,
2013-04-21 18:30:00,53.9,44.0,30.27,West,265,4.0,4.0,69,0.00,,,0.00,Wunderground v.1.15,2013-04-22 01:30:00,
2013-04-21 18:36:00,53.8,43.9,30.27,WSW,242,3.0,6.0,69,0.00,,,0.00,Wunderground v.1.15,2013-04-22 01:36:00,
2013-04-21 18:41:00,53.6,43.3,30.27,West,274,3.0,4.0,68,0.00,,,0.00,Wunderground v.1.15,2013-04-22 01:41:00,
2013-04-21 18:46:00,53.5,43.6,30.27,West,263,3.0,5.0,69,0.00,,,0.00,Wunderground v.1.15,2013-04-22 01:46:00,
2013-04-21 18:52:00,53.4,43.1,30.27,West,281,4.0,5.0,68,0.00,,,0.00,Wunderground v.1.15,2013-04-22 01:52:00,
2013-04-21 18:57:00,53.2,42.9,30.27,WSW,240,3.0,5.0,68,0.00,,,0.00,Wunderground v.1.15,2013-04-22 01:57:00,
2013-04-21 19:02:00,52.9,42.6,30.27,NW,317,3.0,15.0,68,0.00,,,0.00,Wunderground v.1.15,2013-04-22 02:02:00,
2013-04-21 19:08:00,52.6,42.7,30.27,WSW,254,2.0,15.0,69,0.00,,,0.00,Wunderground v.1.15,2013-04-22 02:08:00,
2013-04-21 19:13:00,52.4,42.5,30.28,WNW,302,2.0,15.0,69,0.00,,,0.00,Wunderground v.1.15,2013-04-22 02:13:00,
2013-04-21 19:19:00,52.2,42.3,30.28,WNW,286,2.0,15.0,69,0.00,,,0.00,Wunderground v.1.15,2013-04-22 02:19:00,
2013-04-21 19:24:00,52.1,42.2,30.28,WNW,303,2.0,15.0,69,0.00,,,0.00,Wunderground v.1.15,2013-04-22 02:24:00,
2013-04-21 19:29:00,52.0,42.1,30.27,WNW,290,3.0,15.0,69,0.00,,,0.00,Wunderground v.1.15,2013-04-22 02:29:00,
2013-04-21 19:35:00,52.0,42.1,30.28,West,279,2.0,15.0,69,0.00,,,0.00,Wunderground v.1.15,2013-04-22 02:35:00,
2013-04-21 19:40:00,52.0,42.1,30.28,WNW,300,2.0,2.0,69,0.00,,,0.00,Wunderground v.1.15,2013-04-22 02:40:00,
2013-04-21 19:45:00,51.9,42.4,30.27,WNW,300,1.0,15.0,70,0.00,,,0.00,Wunderground v.1.15,2013-04-22 02:45:00,
2013-04-21 19:51:00,51.9,42.4,30.28,West,273,0.0,15.0,70,0.00,,,0.00,Wunderground v.1.15,2013-04-22 02:51:00,
2013-04-21 19:56:00,51.7,42.2,30.28,West,268,1.0,15.0,70,0.00,,,0.00,Wunderground v.1.15,2013-04-22 02:56:00,
2013-04-21 20:01:00,51.4,41.9,30.28,WNW,284,2.0,15.0,70,0.00,,,0.00,Wunderground v.1.15,2013-04-22 03:01:00,
2013-04-21 20:07:00,50.9,41.5,30.28,West,269,1.0,15.0,70,0.00,,,0.00,Wunderground v.1.15,2013-04-22 03:07:00,
2013-04-21 20:12:00,50.4,41.3,30.28,SSW,213,1.0,15.0,71,0.00,,,0.00,Wunderground v.1.15,2013-04-22 03:12:00,
2013-04-21 20:17:00,49.9,41.2,30.28,SSW,213,1.0,15.0,72,0.00,,,0.00,Wunderground v.1.15,2013-04-22 03:17:00,
2013-04-21 20:23:00,49.5,41.2,30.28,WNW,282,1.0,15.0,73,0.00,,,0.00,Wunderground v.1.15,2013-04-22 03:23:00,
2013-04-21 20:28:00,49.2,41.3,30.28,WNW,282,1.0,15.0,74,0.00,,,0.00,Wunderground v.1.15,2013-04-22 03:28:00,
2013-04-21 20:34:00,48.8,41.2,30.28,WNW,282,0.0,15.0,75,0.00,,,0.00,Wunderground v.1.15,2013-04-22 03:34:00,
2013-04-21 20:39:00,48.5,40.9,30.29,West,279,0.0,15.0,75,0.00,,,0.00,Wunderground v.1.15,2013-04-22 03:39:00,
2013-04-21 20:44:00,48.3,40.7,30.29,West,279,1.0,15.0,75,0.00,,,0.00,Wunderground v.1.15,2013-04-22 03:44:00,
2013-04-21 20:49:00,48.2,41.0,30.30,West,279,0.0,15.0,76,0.00,,,0.00,Wunderground v.1.15,2013-04-22 03:49:00,
2013-04-21 20:55:00,48.1,41.2,30.30,West,279,0.0,15.0,77,0.00,,,0.00,Wunderground v.1.15,2013-04-22 03:55:00,
2013-04-21 21:00:00,47.9,41.0,30.30,West,279,0.0,15.0,77,0.00,,,0.00,Wunderground v.1.15,2013-04-22 04:00:00,
2013-04-21 21:01:00,47.9,41.0,30.30,West,279,0.0,15.0,77,0.00,,,0.00,Wunderground v.1.15,2013-04-22 04:01:00,
2013-04-21 21:02:00,47.9,41.0,30.30,West,279,0.0,15.0,77,0.00,,,0.00,Wunderground v.1.15,2013-04-22 04:02:00,
2013-04-21 21:03:00,47.9,41.0,30.31,West,279,0.0,15.0,77,0.00,,,0.00,Wunderground v.1.15,2013-04-22 04:03:00,
2013-04-21 21:05:00,47.8,41.3,30.30,West,279,0.0,15.0,78,0.00,,,0.00,Wunderground v.1.15,2013-04-22 04:05:00,
2013-04-21 21:11:00,47.8,41.3,30.31,West,279,0.0,15.0,78,0.00,,,0.00,Wunderground v.1.15,2013-04-22 04:11:00,
2013-04-21 21:16:00,47.9,41.7,30.31,West,279,1.0,15.0,79,0.00,,,0.00,Wunderground v.1.15,2013-04-22 04:16:00,
2013-04-21 21:22:00,48.0,41.8,30.32,West,279,2.0,15.0,79,0.00,,,0.00,Wunderground v.1.15,2013-04-22 04:22:00,
2013-04-21 21:27:00,48.1,41.9,30.32,West,279,1.0,15.0,79,0.00,,,0.00,Wunderground v.1.15,2013-04-22 04:27:00,
2013-04-21 21:32:00,48.0,42.1,30.32,West,279,1.0,15.0,80,0.00,,,0.00,Wunderground v.1.15,2013-04-22 04:32:00,
2013-04-21 21:37:00,48.0,42.1,30.32,West,279,1.0,15.0,80,0.00,,,0.00,Wunderground v.1.15,2013-04-22 04:37:00,
2013-04-21 21:43:00,47.9,41.7,30.33,West,279,0.0,15.0,79,0.00,,,0.00,Wunderground v.1.15,2013-04-22 04:43:00,
2013-04-21 21:48:00,47.9,42.0,30.33,West,279,0.0,15.0,80,0.00,,,0.00,Wunderground v.1.15,2013-04-22 04:48:00,
2013-04-21 21:53:00,48.0,41.8,30.33,West,279,0.0,15.0,79,0.00,,,0.00,Wunderground v.1.15,2013-04-22 04:53:00,
2013-04-21 21:59:00,48.0,42.1,30.33,West,279,0.0,15.0,80,0.00,,,0.00,Wunderground v.1.15,2013-04-22 04:59:00,
2013-04-21 22:04:00,48.0,42.1,30.33,West,279,0.0,15.0,80,0.00,,,0.00,Wunderground v.1.15,2013-04-22 05:04:00,
2013-04-21 22:09:00,48.0,42.1,30.33,West,279,0.0,15.0,80,0.00,,,0.00,Wunderground v.1.15,2013-04-22 05:09:00,
2013-04-21 22:15:00,48.0,42.1,30.33,West,279,1.0,15.0,80,0.00,,,0.00,Wunderground v.1.15,2013-04-22 05:15:00,
2013-04-21 22:20:00,47.9,42.0,30.33,West,279,1.0,1.0,80,0.00,,,0.00,Wunderground v.1.15,2013-04-22 05:20:00,
2013-04-21 22:25:00,47.8,41.9,30.33,West,279,1.0,15.0,80,0.00,,,0.00,Wunderground v.1.15,2013-04-22 05:25:00,
2013-04-21 22:31:00,47.6,41.7,30.33,West,279,0.0,15.0,80,0.00,,,0.00,Wunderground v.1.15,2013-04-22 05:31:00,
2013-04-21 22:36:00,47.5,42.0,30.33,West,279,0.0,15.0,81,0.00,,,0.00,Wunderground v.1.15,2013-04-22 05:36:00,
2013-04-21 22:41:00,47.2,41.7,30.33,West,279,0.0,15.0,81,0.00,,,0.00,Wunderground v.1.15,2013-04-22 05:41:00,
2013-04-21 22:47:00,46.9,41.4,30.33,West,279,0.0,15.0,81,0.00,,,0.00,Wunderground v.1.15,2013-04-22 05:47:00,
2013-04-21 22:52:00,46.4,40.9,30.33,West,279,0.0,15.0,81,0.00,,,0.00,Wunderground v.1.15,2013-04-22 05:52:00,
2013-04-21 22:57:00,46.1,40.9,30.34,West,279,0.0,15.0,82,0.00,,,0.00,Wunderground v.1.15,2013-04-22 05:57:00,
2013-04-21 23:03:00,45.6,40.1,30.33,West,279,0.0,15.0,81,0.00,,,0.00,Wunderground v.1.15,2013-04-22 06:03:00,
2013-04-21 23:08:00,45.2,40.3,30.34,West,279,0.0,15.0,83,0.00,,,0.00,Wunderground v.1.15,2013-04-22 06:08:00,
2013-04-21 23:13:00,44.8,40.3,30.34,West,279,0.0,15.0,84,0.00,,,0.00,Wunderground v.1.15,2013-04-22 06:13:00,
2013-04-21 23:19:00,44.3,39.8,30.34,West,279,0.0,15.0,84,0.00,,,0.00,Wunderground v.1.15,2013-04-22 06:19:00,
2013-04-21 23:24:00,43.5,39.0,30.34,West,279,0.0,15.0,84,0.00,,,0.00,Wunderground v.1.15,2013-04-22 06:24:00,
2013-04-21 23:29:00,43.1,38.9,30.34,West,279,0.0,15.0,85,0.00,,,0.00,Wunderground v.1.15,2013-04-22 06:29:00,
2013-04-21 23:35:00,42.7,38.8,30.34,West,279,0.0,15.0,86,0.00,,,0.00,Wunderground v.1.15,2013-04-22 06:35:00,
2013-04-21 23:40:00,42.5,38.9,30.35,West,279,0.0,15.0,87,0.00,,,0.00,Wunderground v.1.15,2013-04-22 06:40:00,
2013-04-21 23:45:00,42.1,38.5,30.35,West,279,0.0,15.0,87,0.00,,,0.00,Wunderground v.1.15,2013-04-22 06:45:00,
2013-04-21 23:51:00,41.9,38.6,30.35,West,279,0.0,15.0,88,0.00,,,0.00,Wunderground v.1.15,2013-04-22 06:51:00,
2013-04-21 23:56:00,41.6,38.3,30.35,West,279,0.0,15.0,88,0.00,,,0.00,Wunderground v.1.15,2013-04-22 06:56:00,